createdAt,value
2023-05-15T00:00:45.729Z,9.17
2023-05-15T00:04:09.729Z,7.35
2023-05-15T00:07:33.823Z,7.20
2023-05-15T00:11:01.906Z,7.63
2023-05-15T00:14:26.181Z,8.07
2023-05-15T00:17:49.775Z,7.70
2023-05-15T00:21:20.706Z,8.43
2023-05-15T00:24:44.317Z,8.23
2023-05-15T00:28:10.091Z,7.43
2023-05-15T00:31:34.019Z,8.80
2023-05-15T00:34:57.769Z,7.60
2023-05-15T00:38:21.797Z,7.00
2023-05-15T00:41:47.189Z,9.70
2023-05-15T00:45:13.855Z,9.63
2023-05-15T00:48:38.447Z,9.43
2023-05-15T00:52:03.722Z,9.57
2023-05-15T00:55:29.469Z,8.90
2023-05-15T00:58:56.180Z,9.17
2023-05-15T01:02:21.306Z,8.37
2023-05-15T01:05:46.126Z,8.87
2023-05-15T01:09:12.115Z,8.80
2023-05-15T01:12:38.560Z,8.90
2023-05-15T01:16:03.026Z,9.23
2023-05-15T01:19:28.352Z,9.13
2023-05-15T01:23:11.208Z,9.87
2023-05-15T01:27:16.948Z,8.93
2023-05-15T01:30:44.452Z,9.13
2023-05-15T01:34:12.096Z,9.40
2023-05-15T01:37:45.668Z,8.90
2023-05-15T01:41:14.860Z,8.60
2023-05-15T01:44:45.792Z,8.60
2023-05-15T01:48:10.880Z,9.07
2023-05-15T01:51:35.527Z,8.00
2023-05-15T01:55:01.196Z,8.17
2023-05-15T01:58:27.714Z,8.53
2023-05-15T02:01:53.940Z,7.40
2023-05-15T02:05:19.749Z,7.80
2023-05-15T02:08:44.607Z,8.77
2023-05-15T02:12:09.406Z,8.40
2023-05-15T02:15:34.384Z,8.17
2023-05-15T02:19:00.538Z,8.57
2023-05-15T02:22:24.937Z,7.80
2023-05-15T02:26:08.662Z,7.80
2023-05-15T02:29:40.033Z,7.87
2023-05-15T02:33:15.639Z,8.00
2023-05-15T02:36:43.928Z,8.27
2023-05-15T02:40:12.885Z,8.60
2023-05-15T02:43:37.357Z,7.80
2023-05-15T02:47:01.364Z,8.43
2023-05-15T02:50:25.301Z,8.33
2023-05-15T02:53:50.687Z,7.30
2023-05-15T02:57:14.979Z,8.30
2023-05-15T03:00:41.946Z,7.50
2023-05-15T03:04:06.202Z,7.93
2023-05-15T03:07:30.016Z,7.67
2023-05-15T03:10:55.402Z,7.97
2023-05-15T03:14:19.006Z,7.33
2023-05-15T03:17:42.966Z,8.20
2023-05-15T03:21:07.213Z,8.70
2023-05-15T03:24:31.012Z,10.33
2023-05-15T03:27:56.349Z,10.30
2023-05-15T03:31:21.031Z,11.00
2023-05-15T03:34:45.106Z,10.53
2023-05-15T03:38:09.013Z,10.80
2023-05-15T03:41:33.091Z,12.13
2023-05-15T03:44:59.311Z,12.77
2023-05-15T03:48:22.928Z,12.40
2023-05-15T03:51:48.139Z,12.67
2023-05-15T03:55:12.153Z,12.63
2023-05-15T03:58:37.153Z,12.10
2023-05-15T04:02:05.510Z,11.00
2023-05-15T04:05:30.094Z,10.60
2023-05-15T04:08:56.456Z,11.60
2023-05-15T04:12:20.172Z,11.10
2023-05-15T04:15:44.254Z,10.60
2023-05-15T04:19:11.607Z,10.10
2023-05-15T04:22:36.156Z,10.30
2023-05-15T04:26:02.157Z,10.00
2023-05-15T04:29:26.171Z,10.20
2023-05-15T04:32:51.653Z,9.90
2023-05-15T04:36:17.272Z,10.20
2023-05-15T04:39:41.070Z,10.40
2023-05-15T04:43:05.870Z,10.97
2023-05-15T04:46:30.487Z,10.33
2023-05-15T04:49:55.098Z,9.53
2023-05-15T04:53:22.715Z,9.30
2023-05-15T04:56:47.184Z,9.10
2023-05-15T05:00:15.309Z,10.13
2023-05-15T05:03:39.158Z,10.20
2023-05-15T05:07:05.629Z,11.13
2023-05-15T05:10:32.660Z,10.63
2023-05-15T05:13:57.212Z,8.03
2023-05-15T05:17:21.070Z,9.50
2023-05-15T05:20:45.139Z,9.27
2023-05-15T05:24:09.142Z,8.97
2023-05-15T05:27:34.036Z,10.37
2023-05-15T05:30:57.620Z,9.70
2023-05-15T05:34:21.573Z,9.37
2023-05-15T05:37:46.248Z,10.23
2023-05-15T05:41:10.193Z,8.40
2023-05-15T05:44:35.169Z,9.13
2023-05-15T05:47:59.264Z,8.67
2023-05-15T05:51:22.834Z,9.47
2023-05-15T05:54:47.978Z,10.07
2023-05-15T05:58:21.703Z,9.97
2023-05-15T06:01:51.446Z,9.60
2023-05-15T06:05:15.335Z,11.90
2023-05-15T06:08:38.912Z,10.33
2023-05-15T06:12:04.500Z,10.00
2023-05-15T06:15:28.216Z,12.43
2023-05-15T06:18:53.116Z,12.20
2023-05-15T06:22:16.749Z,11.63
2023-05-15T06:25:40.497Z,11.93
2023-05-15T06:29:04.018Z,10.97
2023-05-15T06:32:27.609Z,11.20
2023-05-15T06:35:52.601Z,10.83
2023-05-15T06:39:16.165Z,12.60
2023-05-15T06:42:39.739Z,10.17
2023-05-15T06:46:03.346Z,12.03
2023-05-15T06:49:27.848Z,10.83
2023-05-15T06:52:52.822Z,11.30
2023-05-15T06:56:17.267Z,9.87
2023-05-15T06:59:40.861Z,10.43
2023-05-15T07:03:05.618Z,10.43
2023-05-15T07:06:31.785Z,11.27
2023-05-15T07:09:56.883Z,10.77
2023-05-15T07:13:21.783Z,12.27
2023-05-15T07:16:47.036Z,10.80
2023-05-15T07:20:11.505Z,10.67
2023-05-15T07:23:35.138Z,12.20
2023-05-15T07:27:00.238Z,12.33
2023-05-15T07:30:24.565Z,11.77
2023-05-15T07:33:48.423Z,13.73
2023-05-15T07:37:11.945Z,12.03
2023-05-15T07:40:35.560Z,14.13
2023-05-15T07:44:00.521Z,11.93
2023-05-15T07:47:24.177Z,13.57
2023-05-15T07:50:48.730Z,13.27
2023-05-15T07:54:12.408Z,18.70
2023-05-15T07:57:36.133Z,11.50
2023-05-15T08:01:01.630Z,11.10
2023-05-15T08:04:25.307Z,10.83
2023-05-15T08:07:48.915Z,11.03
2023-05-15T08:11:12.558Z,13.57
2023-05-15T08:14:36.423Z,12.20
2023-05-15T08:18:01.604Z,12.50
2023-05-15T08:21:25.323Z,13.67
2023-05-15T08:24:49.014Z,12.20
2023-05-15T08:28:12.743Z,12.37
2023-05-15T08:31:36.353Z,14.90
2023-05-15T08:35:01.365Z,13.93
2023-05-15T08:38:24.910Z,12.90
2023-05-15T08:41:52.941Z,13.13
2023-05-15T08:45:16.668Z,12.83
2023-05-15T08:48:43.171Z,12.90
2023-05-15T08:52:08.931Z,12.57
2023-05-15T08:55:32.880Z,13.20
2023-05-15T08:58:56.480Z,14.60
2023-05-15T09:02:20.868Z,13.10
2023-05-15T09:05:44.717Z,12.80
2023-05-15T09:09:13.501Z,13.83
2023-05-15T09:12:40.850Z,14.80
2023-05-15T09:16:04.650Z,16.00
2023-05-15T09:19:28.917Z,14.90
2023-05-15T09:22:52.488Z,15.10
2023-05-15T09:26:17.378Z,15.93
2023-05-15T09:29:42.037Z,14.70
2023-05-15T09:33:05.771Z,16.27
2023-05-15T09:36:29.883Z,18.03
2023-05-15T09:39:53.497Z,19.50
2023-05-15T09:43:18.508Z,20.17
2023-05-15T09:46:42.140Z,20.20
2023-05-15T09:50:06.230Z,18.80
2023-05-15T09:53:30.533Z,18.57
2023-05-15T09:56:54.923Z,17.87
2023-05-15T10:00:22.129Z,14.83
2023-05-15T10:03:46.023Z,18.43
2023-05-15T10:07:10.206Z,20.80
2023-05-15T10:10:34.233Z,19.60
2023-05-15T10:13:58.884Z,18.23
2023-05-15T10:17:24.166Z,16.33
2023-05-15T10:20:48.289Z,14.93
2023-05-15T10:24:13.278Z,13.47
2023-05-15T10:27:38.565Z,15.13
2023-05-15T10:31:04.253Z,10.37
2023-05-15T10:34:30.065Z,11.30
2023-05-15T10:37:54.557Z,11.40
2023-05-15T10:41:20.257Z,11.53
2023-05-15T10:44:43.824Z,11.13
2023-05-15T10:48:08.758Z,10.37
2023-05-15T10:51:36.714Z,11.10
2023-05-15T10:55:01.021Z,14.57
2023-05-15T10:58:25.319Z,15.53
2023-05-15T11:01:49.851Z,15.70
2023-05-15T11:05:14.447Z,15.57
2023-05-15T11:08:40.519Z,16.03
2023-05-15T11:12:05.725Z,19.40
2023-05-15T11:15:43.056Z,20.10
2023-05-15T11:19:23.107Z,20.80
2023-05-15T11:22:59.057Z,21.73
2023-05-15T11:26:33.941Z,20.43
2023-05-15T11:30:15.081Z,24.30
2023-05-15T11:33:40.690Z,24.43
2023-05-15T11:37:04.348Z,24.03
2023-05-15T11:40:29.507Z,24.17
2023-05-15T11:43:54.437Z,23.30
2023-05-15T11:47:18.022Z,23.40
2023-05-15T11:50:42.988Z,21.97
2023-05-15T11:54:08.119Z,19.87
2023-05-15T11:57:31.821Z,18.00
2023-05-15T12:00:58.745Z,17.20
2023-05-15T12:04:22.691Z,17.20
2023-05-15T12:07:46.640Z,20.00
2023-05-15T12:11:10.595Z,18.53
2023-05-15T12:14:34.622Z,18.07
2023-05-15T12:18:04.267Z,14.20
2023-05-15T12:21:28.051Z,12.57
2023-05-15T12:24:51.896Z,11.57
2023-05-15T12:28:16.109Z,10.97
2023-05-15T12:31:40.054Z,11.80
2023-05-15T12:35:06.032Z,12.30
2023-05-15T12:38:30.391Z,10.10
2023-05-15T12:41:55.777Z,12.00
2023-05-15T12:45:21.467Z,11.90
2023-05-15T12:48:45.794Z,12.90
2023-05-15T12:52:13.571Z,12.77
2023-05-15T12:55:37.734Z,13.13
2023-05-15T12:59:01.697Z,13.90
2023-05-15T13:02:25.581Z,12.40
2023-05-15T13:05:49.384Z,13.80
2023-05-15T13:09:14.609Z,13.20
2023-05-15T13:12:39.285Z,10.90
2023-05-15T13:16:02.958Z,12.17
2023-05-15T13:19:26.538Z,11.37
2023-05-15T13:22:50.110Z,10.80
2023-05-15T13:26:15.092Z,12.73
2023-05-15T13:29:38.750Z,10.40
2023-05-15T13:33:03.048Z,10.43
2023-05-15T13:36:26.678Z,11.30
2023-05-15T13:39:50.341Z,8.20
2023-05-15T13:43:15.247Z,10.90
2023-05-15T13:46:38.835Z,11.83
2023-05-15T13:50:03.762Z,11.60
2023-05-15T13:53:27.823Z,11.23
2023-05-15T13:56:51.600Z,10.23
2023-05-15T14:00:18.521Z,11.23
2023-05-15T14:03:42.142Z,11.97
2023-05-15T14:07:06.079Z,13.13
2023-05-15T14:10:30.353Z,11.93
2023-05-15T14:13:54.015Z,10.73
2023-05-15T14:17:19.301Z,11.67
2023-05-15T14:20:43.011Z,13.70
2023-05-15T14:24:07.955Z,13.70
2023-05-15T14:27:31.625Z,14.70
2023-05-15T14:30:55.369Z,16.30
2023-05-15T14:34:22.379Z,15.50
2023-05-15T14:37:45.970Z,14.00
2023-05-15T14:41:09.745Z,10.30
2023-05-15T14:44:33.527Z,11.70
2023-05-15T14:47:57.185Z,11.40
2023-05-15T14:51:22.385Z,9.40
2023-05-15T14:54:51.191Z,11.80
2023-05-15T14:58:20.869Z,9.33
2023-05-15T15:01:50.297Z,11.43
2023-05-15T15:05:15.879Z,11.17
2023-05-15T15:08:42.253Z,9.97
2023-05-15T15:12:07.719Z,7.70
2023-05-15T15:15:33.099Z,8.33
2023-05-15T15:18:57.025Z,9.70
2023-05-15T15:22:21.892Z,10.10
2023-05-15T15:25:52.789Z,13.20
2023-05-15T15:29:17.705Z,11.50
2023-05-15T15:32:42.366Z,10.00
2023-05-15T15:36:06.854Z,10.07
2023-05-15T15:39:30.454Z,11.57
2023-05-15T15:42:55.360Z,11.00
2023-05-15T15:46:19.144Z,11.60
2023-05-15T15:49:43.320Z,12.07
2023-05-15T15:53:06.880Z,11.60
2023-05-15T15:56:30.566Z,10.80
2023-05-15T15:59:55.599Z,10.30
2023-05-15T16:03:19.234Z,10.27
2023-05-15T16:06:43.806Z,9.27
2023-05-15T16:10:12.973Z,10.07
2023-05-15T16:13:37.906Z,9.80
2023-05-15T16:17:05.792Z,11.17
2023-05-15T16:20:29.658Z,9.90
2023-05-15T16:23:53.426Z,9.00
2023-05-15T16:27:16.974Z,10.00
2023-05-15T16:30:48.970Z,11.70
2023-05-15T16:34:16.199Z,11.07
2023-05-15T16:37:48.126Z,11.20
2023-05-15T16:41:11.681Z,9.90
2023-05-15T16:44:35.659Z,9.07
2023-05-15T16:47:59.333Z,10.00
2023-05-15T16:51:24.340Z,10.67
2023-05-15T16:54:48.561Z,9.73
2023-05-15T16:58:12.178Z,9.83
2023-05-15T17:01:36.350Z,9.10
2023-05-15T17:05:00.082Z,8.27
2023-05-15T17:08:25.053Z,8.20
2023-05-15T17:11:48.663Z,8.10
2023-05-15T17:15:12.931Z,8.70
2023-05-15T17:18:36.753Z,8.07
2023-05-15T17:22:00.331Z,8.70
2023-05-15T17:25:25.715Z,6.73
2023-05-15T17:28:49.712Z,7.57
2023-05-15T17:32:13.563Z,8.33
2023-05-15T17:35:37.304Z,7.53
2023-05-15T17:39:01.256Z,7.90
2023-05-15T17:42:28.191Z,8.20
2023-05-15T17:45:51.806Z,8.40
2023-05-15T17:49:15.436Z,8.07
2023-05-15T17:52:39.265Z,8.93
2023-05-15T17:56:03.770Z,9.80
2023-05-15T17:59:29.105Z,10.30
2023-05-15T18:02:54.536Z,8.73
2023-05-15T18:06:19.179Z,9.73
2023-05-15T18:09:42.762Z,10.27
2023-05-15T18:13:06.383Z,9.80
2023-05-15T18:16:32.735Z,11.10
2023-05-15T18:19:56.489Z,11.80
2023-05-15T18:23:20.600Z,11.60
2023-05-15T18:26:44.196Z,11.00
2023-05-15T18:30:09.794Z,10.93
2023-05-15T18:33:37.213Z,10.57
2023-05-15T18:37:00.773Z,8.30
2023-05-15T18:40:26.474Z,6.33
2023-05-15T18:43:50.238Z,7.30
2023-05-15T18:47:14.349Z,5.97
2023-05-15T18:50:40.386Z,6.70
2023-05-15T18:54:04.046Z,4.30
2023-05-15T18:57:28.319Z,4.07
2023-05-15T19:00:52.314Z,2.60
2023-05-15T19:04:16.312Z,2.20
2023-05-15T19:07:42.739Z,3.30
2023-05-15T19:11:08.687Z,3.30
2023-05-15T19:14:34.467Z,3.90
2023-05-15T19:17:58.403Z,6.90
2023-05-15T19:21:22.448Z,9.20
2023-05-15T19:24:48.382Z,9.43
2023-05-15T19:28:12.974Z,9.47
2023-05-15T19:31:38.911Z,11.10
2023-05-15T19:35:03.168Z,10.67
2023-05-15T19:38:28.519Z,9.00
2023-05-15T19:41:55.657Z,8.90
2023-05-15T19:45:19.697Z,9.40
2023-05-15T19:48:44.488Z,8.60
2023-05-15T19:52:09.947Z,9.73
2023-05-15T19:55:33.652Z,9.40
2023-05-15T19:58:59.717Z,10.00
2023-05-15T20:02:24.386Z,11.40
2023-05-15T20:05:48.426Z,10.47
2023-05-15T20:09:14.538Z,10.20
2023-05-15T20:12:41.502Z,10.23
2023-05-15T20:16:12.489Z,10.47
2023-05-15T20:19:37.147Z,10.27
2023-05-15T20:23:01.600Z,10.43
2023-05-15T20:26:25.356Z,11.13
2023-05-15T20:29:49.573Z,9.50
2023-05-15T20:33:14.932Z,9.97
2023-05-15T20:36:39.818Z,9.83
2023-05-15T20:40:12.754Z,10.60
2023-05-15T20:43:40.962Z,10.87
2023-05-15T20:47:05.003Z,11.00
2023-05-15T20:50:30.955Z,10.07
2023-05-15T20:53:54.739Z,9.90
2023-05-15T20:57:20.686Z,9.93
2023-05-15T21:00:45.444Z,11.00
2023-05-15T21:04:09.324Z,10.77
2023-05-15T21:07:34.241Z,10.13
2023-05-15T21:10:57.852Z,11.17
2023-05-15T21:14:21.435Z,11.30
2023-05-15T21:17:45.062Z,11.00
2023-05-15T21:21:09.511Z,10.90
2023-05-15T21:24:44.805Z,12.33
2023-05-15T21:28:08.597Z,11.00
2023-05-15T21:31:32.564Z,11.30
2023-05-15T21:34:56.275Z,10.70
2023-05-15T21:38:20.482Z,12.73
2023-05-15T21:41:45.894Z,12.03
2023-05-15T21:45:10.959Z,14.57
2023-05-15T21:48:35.501Z,12.93
2023-05-15T21:51:59.468Z,12.30
2023-05-15T21:55:23.482Z,12.40
2023-05-15T21:58:48.879Z,13.13
2023-05-15T22:02:18.516Z,11.00
2023-05-15T22:05:42.270Z,11.77
2023-05-15T22:09:06.506Z,11.47
2023-05-15T22:12:31.645Z,11.53
2023-05-15T22:15:56.796Z,11.20
2023-05-15T22:19:32.754Z,12.07
2023-05-15T22:22:57.099Z,12.40
2023-05-15T22:26:21.156Z,12.50
2023-05-15T22:29:45.478Z,13.87
2023-05-15T22:33:10.929Z,12.13
2023-05-15T22:36:36.655Z,12.27
2023-05-15T22:40:05.948Z,12.90
2023-05-15T22:43:29.570Z,11.43
2023-05-15T22:46:53.461Z,12.50
2023-05-15T22:50:22.270Z,13.17
2023-05-15T22:53:45.848Z,10.77
2023-05-15T22:57:09.817Z,9.17
2023-05-15T23:00:34.034Z,13.70
2023-05-15T23:04:01.338Z,10.00
2023-05-15T23:07:26.492Z,9.93
2023-05-15T23:10:50.485Z,9.80
2023-05-15T23:14:15.751Z,10.47
2023-05-15T23:17:39.968Z,9.50
2023-05-15T23:21:04.752Z,9.87
2023-05-15T23:24:30.050Z,11.53
2023-05-15T23:27:55.097Z,9.17
2023-05-15T23:31:20.101Z,9.70
2023-05-15T23:34:54.412Z,8.93
2023-05-15T23:38:18.576Z,11.20
2023-05-15T23:41:46.630Z,9.50
2023-05-15T23:45:13.675Z,8.37
2023-05-15T23:48:37.249Z,10.07
2023-05-15T23:52:01.596Z,9.10
2023-05-15T23:55:25.653Z,9.13
2023-05-15T23:58:53.122Z,10.57
